sensor_id;sensor_type;location;lat;lon;timestamp;P1;durP1;ratioP1;P2;durP2;ratioP2
19971;SDS011;10147;16.402;102.848;2024-03-08T00:00:57;66.45;;;56.25;;
19971;SDS011;10147;16.402;102.848;2024-03-08T00:03:27;63.85;;;54.78;;
19971;SDS011;10147;16.402;102.848;2024-03-08T00:05:57;74.90;;;57.83;;
19971;SDS011;10147;16.402;102.848;2024-03-08T00:08:28;66.75;;;56.20;;
19971;SDS011;10147;16.402;102.848;2024-03-08T00:10:59;72.13;;;55.45;;
19971;SDS011;10147;16.402;102.848;2024-03-08T00:13:30;70.43;;;55.80;;
19971;SDS011;10147;16.402;102.848;2024-03-08T00:16:00;64.18;;;55.00;;
19971;SDS011;10147;16.402;102.848;2024-03-08T00:18:30;65.63;;;56.60;;
19971;SDS011;10147;16.402;102.848;2024-03-08T00:21:01;66.95;;;58.15;;
19971;SDS011;10147;16.402;102.848;2024-03-08T00:23:33;64.95;;;55.97;;
19971;SDS011;10147;16.402;102.848;2024-03-08T00:26:03;72.47;;;64.53;;
19971;SDS011;10147;16.402;102.848;2024-03-08T00:28:33;63.72;;;49.60;;
19971;SDS011;10147;16.402;102.848;2024-03-08T00:31:03;58.97;;;49.58;;
19971;SDS011;10147;16.402;102.848;2024-03-08T00:33:33;57.50;;;49.40;;
19971;SDS011;10147;16.402;102.848;2024-03-08T00:36:03;54.88;;;46.47;;
19971;SDS011;10147;16.402;102.848;2024-03-08T00:38:33;55.05;;;45.97;;
19971;SDS011;10147;16.402;102.848;2024-03-08T00:41:04;58.90;;;48.60;;
19971;SDS011;10147;16.402;102.848;2024-03-08T00:43:34;55.88;;;48.97;;
19971;SDS011;10147;16.402;102.848;2024-03-08T00:46:04;62.80;;;52.35;;
19971;SDS011;10147;16.402;102.848;2024-03-08T00:48:34;58.55;;;47.22;;
19971;SDS011;10147;16.402;102.848;2024-03-08T00:51:06;54.05;;;46.22;;
19971;SDS011;10147;16.402;102.848;2024-03-08T00:53:37;51.85;;;46.00;;
19971;SDS011;10147;16.402;102.848;2024-03-08T00:56:10;52.38;;;44.63;;
19971;SDS011;10147;16.402;102.848;2024-03-08T00:58:40;52.83;;;46.30;;
19971;SDS011;10147;16.402;102.848;2024-03-08T01:01:10;58.15;;;51.80;;
19971;SDS011;10147;16.402;102.848;2024-03-08T01:03:46;49.95;;;44.15;;
19971;SDS011;10147;16.402;102.848;2024-03-08T01:06:17;48.53;;;43.08;;
19971;SDS011;10147;16.402;102.848;2024-03-08T01:08:47;49.13;;;42.50;;
19971;SDS011;10147;16.402;102.848;2024-03-08T01:11:17;49.38;;;43.97;;
19971;SDS011;10147;16.402;102.848;2024-03-08T01:13:47;49.03;;;41.58;;
19971;SDS011;10147;16.402;102.848;2024-03-08T01:16:18;44.53;;;39.70;;
19971;SDS011;10147;16.402;102.848;2024-03-08T01:18:50;51.30;;;40.95;;
19971;SDS011;10147;16.402;102.848;2024-03-08T01:21:20;46.20;;;41.10;;
19971;SDS011;10147;16.402;102.848;2024-03-08T01:23:51;49.15;;;39.00;;
19971;SDS011;10147;16.402;102.848;2024-03-08T01:26:21;44.80;;;38.53;;
19971;SDS011;10147;16.402;102.848;2024-03-08T01:28:52;45.95;;;40.95;;
19971;SDS011;10147;16.402;102.848;2024-03-08T01:31:22;43.85;;;38.70;;
19971;SDS011;10147;16.402;102.848;2024-03-08T01:33:52;42.45;;;37.90;;
19971;SDS011;10147;16.402;102.848;2024-03-08T01:36:22;44.65;;;39.95;;
19971;SDS011;10147;16.402;102.848;2024-03-08T01:38:53;44.10;;;39.22;;
19971;SDS011;10147;16.402;102.848;2024-03-08T01:41:23;41.13;;;36.58;;
19971;SDS011;10147;16.402;102.848;2024-03-08T01:43:53;41.90;;;37.13;;
19971;SDS011;10147;16.402;102.848;2024-03-08T01:46:23;43.00;;;37.70;;
19971;SDS011;10147;16.402;102.848;2024-03-08T01:48:57;45.15;;;37.55;;
19971;SDS011;10147;16.402;102.848;2024-03-08T01:51:30;42.28;;;37.72;;
19971;SDS011;10147;16.402;102.848;2024-03-08T01:54:00;42.60;;;37.95;;
19971;SDS011;10147;16.402;102.848;2024-03-08T01:56:32;41.85;;;37.08;;
19971;SDS011;10147;16.402;102.848;2024-03-08T01:59:04;43.67;;;37.38;;
19971;SDS011;10147;16.402;102.848;2024-03-08T02:01:36;45.72;;;40.70;;
19971;SDS011;10147;16.402;102.848;2024-03-08T02:04:06;42.00;;;35.88;;
19971;SDS011;10147;16.402;102.848;2024-03-08T02:06:37;61.58;;;55.15;;
19971;SDS011;10147;16.402;102.848;2024-03-08T02:09:10;45.35;;;38.60;;
19971;SDS011;10147;16.402;102.848;2024-03-08T02:11:41;44.75;;;38.75;;
19971;SDS011;10147;16.402;102.848;2024-03-08T02:14:12;45.83;;;39.60;;
19971;SDS011;10147;16.402;102.848;2024-03-08T02:16:43;45.30;;;38.35;;
19971;SDS011;10147;16.402;102.848;2024-03-08T02:19:13;46.63;;;40.33;;
19971;SDS011;10147;16.402;102.848;2024-03-08T02:21:43;44.13;;;38.97;;
19971;SDS011;10147;16.402;102.848;2024-03-08T02:24:17;59.30;;;53.15;;
19971;SDS011;10147;16.402;102.848;2024-03-08T02:26:47;56.70;;;50.90;;
19971;SDS011;10147;16.402;102.848;2024-03-08T02:29:17;47.22;;;40.17;;
19971;SDS011;10147;16.402;102.848;2024-03-08T02:31:47;51.75;;;46.53;;
19971;SDS011;10147;16.402;102.848;2024-03-08T02:34:20;44.83;;;38.55;;
19971;SDS011;10147;16.402;102.848;2024-03-08T02:36:49;48.13;;;38.97;;
19971;SDS011;10147;16.402;102.848;2024-03-08T02:39:20;47.03;;;41.80;;
19971;SDS011;10147;16.402;102.848;2024-03-08T02:41:50;44.22;;;39.38;;
19971;SDS011;10147;16.402;102.848;2024-03-08T02:44:21;41.05;;;36.63;;
19971;SDS011;10147;16.402;102.848;2024-03-08T02:46:51;41.83;;;37.35;;
19971;SDS011;10147;16.402;102.848;2024-03-08T02:49:24;43.40;;;35.35;;
19971;SDS011;10147;16.402;102.848;2024-03-08T02:51:55;89.20;;;80.00;;
19971;SDS011;10147;16.402;102.848;2024-03-08T02:54:27;41.55;;;36.83;;
19971;SDS011;10147;16.402;102.848;2024-03-08T02:56:57;40.85;;;35.25;;
19971;SDS011;10147;16.402;102.848;2024-03-08T02:59:27;42.97;;;37.97;;
19971;SDS011;10147;16.402;102.848;2024-03-08T03:01:57;51.42;;;37.20;;
19971;SDS011;10147;16.402;102.848;2024-03-08T03:04:28;39.45;;;35.28;;
19971;SDS011;10147;16.402;102.848;2024-03-08T03:06:57;38.00;;;33.90;;
19971;SDS011;10147;16.402;102.848;2024-03-08T03:09:27;44.20;;;36.75;;
19971;SDS011;10147;16.402;102.848;2024-03-08T03:11:59;49.40;;;35.47;;
19971;SDS011;10147;16.402;102.848;2024-03-08T03:14:29;40.28;;;35.88;;
19971;SDS011;10147;16.402;102.848;2024-03-08T03:16:59;40.17;;;35.78;;
19971;SDS011;10147;16.402;102.848;2024-03-08T03:19:29;45.13;;;36.17;;
19971;SDS011;10147;16.402;102.848;2024-03-08T03:21:59;40.90;;;35.15;;
19971;SDS011;10147;16.402;102.848;2024-03-08T03:24:33;43.83;;;39.63;;
19971;SDS011;10147;16.402;102.848;2024-03-08T03:27:04;44.63;;;39.63;;
19971;SDS011;10147;16.402;102.848;2024-03-08T03:29:39;52.72;;;39.20;;
19971;SDS011;10147;16.402;102.848;2024-03-08T03:32:14;47.25;;;34.00;;
19971;SDS011;10147;16.402;102.848;2024-03-08T03:34:47;38.72;;;34.72;;
19971;SDS011;10147;16.402;102.848;2024-03-08T03:37:17;37.53;;;33.47;;
19971;SDS011;10147;16.402;102.848;2024-03-08T03:39:48;41.42;;;34.03;;
19971;SDS011;10147;16.402;102.848;2024-03-08T03:42:20;37.28;;;33.47;;
19971;SDS011;10147;16.402;102.848;2024-03-08T03:44:50;38.25;;;34.15;;
19971;SDS011;10147;16.402;102.848;2024-03-08T03:47:21;41.00;;;36.55;;
19971;SDS011;10147;16.402;102.848;2024-03-08T03:49:51;41.20;;;34.95;;
19971;SDS011;10147;16.402;102.848;2024-03-08T03:52:22;39.63;;;35.00;;
19971;SDS011;10147;16.402;102.848;2024-03-08T03:54:52;40.85;;;35.10;;
19971;SDS011;10147;16.402;102.848;2024-03-08T03:57:22;44.28;;;39.65;;
19971;SDS011;10147;16.402;102.848;2024-03-08T03:59:52;42.35;;;38.05;;
19971;SDS011;10147;16.402;102.848;2024-03-08T04:02:23;40.25;;;36.05;;
19971;SDS011;10147;16.402;102.848;2024-03-08T04:04:55;47.17;;;41.05;;
19971;SDS011;10147;16.402;102.848;2024-03-08T04:07:25;53.53;;;48.58;;
19971;SDS011;10147;16.402;102.848;2024-03-08T04:09:55;49.00;;;44.20;;
19971;SDS011;10147;16.402;102.848;2024-03-08T04:12:25;43.47;;;39.17;;
19971;SDS011;10147;16.402;102.848;2024-03-08T04:14:55;47.03;;;42.13;;
19971;SDS011;10147;16.402;102.848;2024-03-08T04:17:25;41.85;;;37.58;;
19971;SDS011;10147;16.402;102.848;2024-03-08T04:19:55;41.38;;;37.03;;
19971;SDS011;10147;16.402;102.848;2024-03-08T04:22:25;43.58;;;38.75;;
19971;SDS011;10147;16.402;102.848;2024-03-08T04:24:58;39.95;;;35.70;;
19971;SDS011;10147;16.402;102.848;2024-03-08T04:27:28;40.10;;;36.10;;
19971;SDS011;10147;16.402;102.848;2024-03-08T04:29:58;42.45;;;36.97;;
19971;SDS011;10147;16.402;102.848;2024-03-08T04:32:29;45.67;;;36.88;;
19971;SDS011;10147;16.402;102.848;2024-03-08T04:35:01;43.47;;;38.78;;
19971;SDS011;10147;16.402;102.848;2024-03-08T04:37:31;41.22;;;36.83;;
19971;SDS011;10147;16.402;102.848;2024-03-08T04:40:01;45.78;;;39.03;;
19971;SDS011;10147;16.402;102.848;2024-03-08T04:42:32;42.13;;;37.63;;
19971;SDS011;10147;16.402;102.848;2024-03-08T04:45:04;44.50;;;38.53;;
19971;SDS011;10147;16.402;102.848;2024-03-08T04:47:36;42.50;;;37.33;;
19971;SDS011;10147;16.402;102.848;2024-03-08T04:50:07;43.78;;;38.50;;
19971;SDS011;10147;16.402;102.848;2024-03-08T04:52:38;41.70;;;37.20;;
19971;SDS011;10147;16.402;102.848;2024-03-08T04:55:08;43.70;;;36.70;;
19971;SDS011;10147;16.402;102.848;2024-03-08T04:57:38;51.10;;;37.67;;
19971;SDS011;10147;16.402;102.848;2024-03-08T05:00:10;39.63;;;35.38;;
19971;SDS011;10147;16.402;102.848;2024-03-08T05:02:41;40.88;;;35.38;;
19971;SDS011;10147;16.402;102.848;2024-03-08T05:05:11;43.17;;;35.42;;
19971;SDS011;10147;16.402;102.848;2024-03-08T05:07:41;40.65;;;36.35;;
19971;SDS011;10147;16.402;102.848;2024-03-08T05:10:14;40.40;;;34.63;;
19971;SDS011;10147;16.402;102.848;2024-03-08T05:12:46;47.30;;;35.22;;
19971;SDS011;10147;16.402;102.848;2024-03-08T05:15:16;39.75;;;35.50;;
19971;SDS011;10147;16.402;102.848;2024-03-08T05:17:49;43.00;;;36.50;;
19971;SDS011;10147;16.402;102.848;2024-03-08T05:20:19;40.40;;;35.90;;
19971;SDS011;10147;16.402;102.848;2024-03-08T05:22:51;41.78;;;37.08;;
19971;SDS011;10147;16.402;102.848;2024-03-08T05:25:21;40.97;;;36.42;;
19971;SDS011;10147;16.402;102.848;2024-03-08T05:27:51;42.47;;;38.03;;
19971;SDS011;10147;16.402;102.848;2024-03-08T05:30:21;45.45;;;38.08;;
19971;SDS011;10147;16.402;102.848;2024-03-08T05:32:52;46.35;;;39.33;;
19971;SDS011;10147;16.402;102.848;2024-03-08T05:35:22;46.55;;;39.85;;
19971;SDS011;10147;16.402;102.848;2024-03-08T05:37:53;54.08;;;47.83;;
19971;SDS011;10147;16.402;102.848;2024-03-08T05:40:23;54.78;;;48.35;;
19971;SDS011;10147;16.402;102.848;2024-03-08T05:42:53;46.92;;;39.00;;
19971;SDS011;10147;16.402;102.848;2024-03-08T05:45:24;45.55;;;40.08;;
19971;SDS011;10147;16.402;102.848;2024-03-08T05:47:54;46.33;;;40.65;;
19971;SDS011;10147;16.402;102.848;2024-03-08T05:50:24;44.47;;;39.65;;
19971;SDS011;10147;16.402;102.848;2024-03-08T05:52:54;46.95;;;41.85;;
19971;SDS011;10147;16.402;102.848;2024-03-08T05:55:24;58.42;;;40.95;;
19971;SDS011;10147;16.402;102.848;2024-03-08T05:57:54;46.42;;;40.22;;
19971;SDS011;10147;16.402;102.848;2024-03-08T06:00:25;46.90;;;39.65;;
19971;SDS011;10147;16.402;102.848;2024-03-08T06:02:55;44.40;;;39.58;;
19971;SDS011;10147;16.402;102.848;2024-03-08T06:05:27;45.38;;;40.55;;
19971;SDS011;10147;16.402;102.848;2024-03-08T06:07:57;45.25;;;40.10;;
19971;SDS011;10147;16.402;102.848;2024-03-08T06:10:27;41.88;;;37.47;;
19971;SDS011;10147;16.402;102.848;2024-03-08T06:12:57;47.38;;;39.30;;
19971;SDS011;10147;16.402;102.848;2024-03-08T06:15:28;44.67;;;39.08;;
19971;SDS011;10147;16.402;102.848;2024-03-08T06:17:59;45.17;;;40.33;;
19971;SDS011;10147;16.402;102.848;2024-03-08T06:20:30;45.38;;;38.78;;
19971;SDS011;10147;16.402;102.848;2024-03-08T06:23:00;62.83;;;39.00;;
19971;SDS011;10147;16.402;102.848;2024-03-08T06:25:32;45.83;;;38.97;;
19971;SDS011;10147;16.402;102.848;2024-03-08T06:28:03;43.08;;;38.60;;
19971;SDS011;10147;16.402;102.848;2024-03-08T06:30:34;44.00;;;38.63;;
19971;SDS011;10147;16.402;102.848;2024-03-08T06:33:04;43.38;;;38.90;;
19971;SDS011;10147;16.402;102.848;2024-03-08T06:35:34;44.85;;;39.67;;
19971;SDS011;10147;16.402;102.848;2024-03-08T06:38:06;42.88;;;38.42;;
19971;SDS011;10147;16.402;102.848;2024-03-08T06:40:36;42.95;;;38.40;;
19971;SDS011;10147;16.402;102.848;2024-03-08T06:43:06;44.10;;;39.05;;
19971;SDS011;10147;16.402;102.848;2024-03-08T06:45:36;42.95;;;38.42;;
19971;SDS011;10147;16.402;102.848;2024-03-08T06:48:06;49.58;;;39.22;;
19971;SDS011;10147;16.402;102.848;2024-03-08T06:50:38;42.30;;;37.72;;
19971;SDS011;10147;16.402;102.848;2024-03-08T06:53:08;44.25;;;38.33;;
19971;SDS011;10147;16.402;102.848;2024-03-08T06:55:38;43.45;;;38.45;;
19971;SDS011;10147;16.402;102.848;2024-03-08T06:58:09;41.92;;;37.45;;
19971;SDS011;10147;16.402;102.848;2024-03-08T07:00:40;43.08;;;38.45;;
19971;SDS011;10147;16.402;102.848;2024-03-08T07:03:11;43.38;;;36.80;;
19971;SDS011;10147;16.402;102.848;2024-03-08T07:05:46;43.47;;;38.65;;
19971;SDS011;10147;16.402;102.848;2024-03-08T07:08:16;42.95;;;38.47;;
19971;SDS011;10147;16.402;102.848;2024-03-08T07:10:47;42.15;;;37.60;;
19971;SDS011;10147;16.402;102.848;2024-03-08T07:13:18;47.45;;;39.00;;
19971;SDS011;10147;16.402;102.848;2024-03-08T07:15:48;44.03;;;37.70;;
19971;SDS011;10147;16.402;102.848;2024-03-08T07:18:18;41.45;;;36.97;;
19971;SDS011;10147;16.402;102.848;2024-03-08T07:20:48;41.63;;;37.33;;
19971;SDS011;10147;16.402;102.848;2024-03-08T07:23:18;42.90;;;36.47;;
19971;SDS011;10147;16.402;102.848;2024-03-08T07:26:08;45.10;;;36.08;;
19971;SDS011;10147;16.402;102.848;2024-03-08T07:28:38;42.35;;;37.67;;
19971;SDS011;10147;16.402;102.848;2024-03-08T07:31:08;41.85;;;37.42;;
19971;SDS011;10147;16.402;102.848;2024-03-08T07:33:52;42.53;;;35.08;;
19971;SDS011;10147;16.402;102.848;2024-03-08T07:36:22;47.13;;;35.45;;
19971;SDS011;10147;16.402;102.848;2024-03-08T07:38:52;54.08;;;48.60;;
19971;SDS011;10147;16.402;102.848;2024-03-08T07:41:22;54.03;;;48.90;;
19971;SDS011;10147;16.402;102.848;2024-03-08T07:43:52;39.10;;;34.97;;
19971;SDS011;10147;16.402;102.848;2024-03-08T07:46:22;38.88;;;34.45;;
19971;SDS011;10147;16.402;102.848;2024-03-08T07:48:55;39.30;;;35.10;;
19971;SDS011;10147;16.402;102.848;2024-03-08T07:51:25;39.97;;;35.80;;
19971;SDS011;10147;16.402;102.848;2024-03-08T07:53:55;46.47;;;36.53;;
19971;SDS011;10147;16.402;102.848;2024-03-08T07:56:25;46.17;;;36.42;;
19971;SDS011;10147;16.402;102.848;2024-03-08T07:58:55;45.95;;;36.25;;
19971;SDS011;10147;16.402;102.848;2024-03-08T08:01:26;40.42;;;36.20;;
19971;SDS011;10147;16.402;102.848;2024-03-08T08:03:56;41.78;;;36.80;;
19971;SDS011;10147;16.402;102.848;2024-03-08T08:06:27;45.22;;;37.35;;
19971;SDS011;10147;16.402;102.848;2024-03-08T08:09:00;41.38;;;36.95;;
19971;SDS011;10147;16.402;102.848;2024-03-08T08:11:30;44.30;;;36.50;;
19971;SDS011;10147;16.402;102.848;2024-03-08T08:14:01;42.03;;;35.63;;
19971;SDS011;10147;16.402;102.848;2024-03-08T08:16:31;42.20;;;34.60;;
19971;SDS011;10147;16.402;102.848;2024-03-08T08:19:01;41.88;;;37.22;;
19971;SDS011;10147;16.402;102.848;2024-03-08T08:21:37;46.67;;;35.55;;
19971;SDS011;10147;16.402;102.848;2024-03-08T08:24:07;41.42;;;36.03;;
19971;SDS011;10147;16.402;102.848;2024-03-08T08:26:40;45.60;;;37.22;;
19971;SDS011;10147;16.402;102.848;2024-03-08T08:29:10;43.80;;;34.50;;
19971;SDS011;10147;16.402;102.848;2024-03-08T08:31:40;40.67;;;36.00;;
19971;SDS011;10147;16.402;102.848;2024-03-08T08:34:10;39.45;;;35.22;;
19971;SDS011;10147;16.402;102.848;2024-03-08T08:36:40;39.75;;;35.55;;
19971;SDS011;10147;16.402;102.848;2024-03-08T08:39:10;40.10;;;35.75;;
19971;SDS011;10147;16.402;102.848;2024-03-08T08:41:42;52.97;;;38.50;;
19971;SDS011;10147;16.402;102.848;2024-03-08T08:44:12;40.42;;;36.08;;
19971;SDS011;10147;16.402;102.848;2024-03-08T08:46:45;40.03;;;35.15;;
19971;SDS011;10147;16.402;102.848;2024-03-08T08:49:16;58.45;;;36.22;;
19971;SDS011;10147;16.402;102.848;2024-03-08T08:51:49;44.45;;;35.83;;
19971;SDS011;10147;16.402;102.848;2024-03-08T08:54:22;41.53;;;35.97;;
19971;SDS011;10147;16.402;102.848;2024-03-08T08:56:54;41.03;;;36.47;;
19971;SDS011;10147;16.402;102.848;2024-03-08T08:59:23;44.35;;;36.13;;
19971;SDS011;10147;16.402;102.848;2024-03-08T09:01:54;43.38;;;35.72;;
19971;SDS011;10147;16.402;102.848;2024-03-08T09:04:24;39.30;;;35.08;;
19971;SDS011;10147;16.402;102.848;2024-03-08T09:06:54;41.33;;;35.67;;
19971;SDS011;10147;16.402;102.848;2024-03-08T09:09:25;45.20;;;36.75;;
19971;SDS011;10147;16.402;102.848;2024-03-08T09:11:56;45.45;;;36.10;;
19971;SDS011;10147;16.402;102.848;2024-03-08T09:14:26;39.95;;;35.75;;
19971;SDS011;10147;16.402;102.848;2024-03-08T09:16:56;41.92;;;36.58;;
19971;SDS011;10147;16.402;102.848;2024-03-08T09:19:26;47.15;;;36.17;;
19971;SDS011;10147;16.402;102.848;2024-03-08T09:21:57;40.30;;;34.97;;
19971;SDS011;10147;16.402;102.848;2024-03-08T09:24:29;42.55;;;35.80;;
19971;SDS011;10147;16.402;102.848;2024-03-08T09:27:03;40.65;;;34.88;;
19971;SDS011;10147;16.402;102.848;2024-03-08T09:29:33;45.75;;;37.75;;
19971;SDS011;10147;16.402;102.848;2024-03-08T09:32:04;41.03;;;36.67;;
19971;SDS011;10147;16.402;102.848;2024-03-08T09:34:34;45.22;;;37.03;;
19971;SDS011;10147;16.402;102.848;2024-03-08T09:37:04;52.45;;;37.03;;
19971;SDS011;10147;16.402;102.848;2024-03-08T09:39:35;41.47;;;37.03;;
19971;SDS011;10147;16.402;102.848;2024-03-08T09:42:05;47.33;;;36.78;;
19971;SDS011;10147;16.402;102.848;2024-03-08T09:44:35;38.85;;;34.70;;
19971;SDS011;10147;16.402;102.848;2024-03-08T09:47:06;43.30;;;36.50;;
19971;SDS011;10147;16.402;102.848;2024-03-08T09:49:38;42.08;;;37.65;;
19971;SDS011;10147;16.402;102.848;2024-03-08T09:52:10;41.97;;;36.50;;
19971;SDS011;10147;16.402;102.848;2024-03-08T09:54:41;41.95;;;37.22;;
19971;SDS011;10147;16.402;102.848;2024-03-08T09:57:13;49.17;;;39.75;;
19971;SDS011;10147;16.402;102.848;2024-03-08T09:59:47;44.53;;;38.97;;
19971;SDS011;10147;16.402;102.848;2024-03-08T10:02:19;48.30;;;39.42;;
19971;SDS011;10147;16.402;102.848;2024-03-08T10:04:51;47.50;;;39.50;;
19971;SDS011;10147;16.402;102.848;2024-03-08T10:07:24;50.08;;;40.60;;
19971;SDS011;10147;16.402;102.848;2024-03-08T10:09:54;49.65;;;40.20;;
19971;SDS011;10147;16.402;102.848;2024-03-08T10:12:24;54.15;;;42.47;;
19971;SDS011;10147;16.402;102.848;2024-03-08T10:14:55;54.78;;;41.13;;
19971;SDS011;10147;16.402;102.848;2024-03-08T10:17:27;49.35;;;41.97;;
19971;SDS011;10147;16.402;102.848;2024-03-08T10:20:01;48.83;;;43.50;;
19971;SDS011;10147;16.402;102.848;2024-03-08T10:22:33;48.05;;;40.67;;
19971;SDS011;10147;16.402;102.848;2024-03-08T10:25:05;47.67;;;42.40;;
19971;SDS011;10147;16.402;102.848;2024-03-08T10:27:38;46.78;;;41.78;;
19971;SDS011;10147;16.402;102.848;2024-03-08T10:30:15;46.33;;;41.50;;
19971;SDS011;10147;16.402;102.848;2024-03-08T10:32:53;46.67;;;41.83;;
19971;SDS011;10147;16.402;102.848;2024-03-08T10:35:24;48.58;;;41.85;;
19971;SDS011;10147;16.402;102.848;2024-03-08T10:37:56;48.97;;;43.58;;
19971;SDS011;10147;16.402;102.848;2024-03-08T10:40:33;52.42;;;42.72;;
19971;SDS011;10147;16.402;102.848;2024-03-08T10:43:11;50.00;;;43.35;;
19971;SDS011;10147;16.402;102.848;2024-03-08T10:46:00;50.05;;;44.38;;
19971;SDS011;10147;16.402;102.848;2024-03-08T10:48:46;48.67;;;43.53;;
19971;SDS011;10147;16.402;102.848;2024-03-08T10:51:19;50.95;;;43.58;;
19971;SDS011;10147;16.402;102.848;2024-03-08T10:53:49;58.63;;;43.85;;
19971;SDS011;10147;16.402;102.848;2024-03-08T10:56:21;51.60;;;45.72;;
19971;SDS011;10147;16.402;102.848;2024-03-08T10:58:52;63.03;;;45.88;;
19971;SDS011;10147;16.402;102.848;2024-03-08T11:01:25;57.03;;;46.22;;
19971;SDS011;10147;16.402;102.848;2024-03-08T11:03:56;57.42;;;47.22;;
19971;SDS011;10147;16.402;102.848;2024-03-08T11:06:41;55.85;;;44.92;;
19971;SDS011;10147;16.402;102.848;2024-03-08T11:15:10;55.75;;;49.72;;
19971;SDS011;10147;16.402;102.848;2024-03-08T11:17:48;54.42;;;48.13;;
19971;SDS011;10147;16.402;102.848;2024-03-08T11:20:20;66.68;;;51.17;;
19971;SDS011;10147;16.402;102.848;2024-03-08T11:22:53;56.88;;;49.90;;
19971;SDS011;10147;16.402;102.848;2024-03-08T11:25:33;62.38;;;51.40;;
19971;SDS011;10147;16.402;102.848;2024-03-08T11:28:20;62.05;;;52.83;;
19971;SDS011;10147;16.402;102.848;2024-03-08T11:33:56;64.30;;;54.67;;
19971;SDS011;10147;16.402;102.848;2024-03-08T11:36:27;63.20;;;52.80;;
19971;SDS011;10147;16.402;102.848;2024-03-08T11:38:59;61.50;;;51.88;;
19971;SDS011;10147;16.402;102.848;2024-03-08T11:41:38;63.55;;;51.50;;
19971;SDS011;10147;16.402;102.848;2024-03-08T11:44:10;64.50;;;54.15;;
19971;SDS011;10147;16.402;102.848;2024-03-08T11:46:45;63.38;;;55.60;;
19971;SDS011;10147;16.402;102.848;2024-03-08T11:49:18;60.63;;;53.80;;
19971;SDS011;10147;16.402;102.848;2024-03-08T11:51:53;63.53;;;54.72;;
19971;SDS011;10147;16.402;102.848;2024-03-08T11:54:24;62.42;;;54.55;;
19971;SDS011;10147;16.402;102.848;2024-03-08T11:56:55;67.82;;;54.17;;
19971;SDS011;10147;16.402;102.848;2024-03-08T11:59:30;61.88;;;55.08;;
19971;SDS011;10147;16.402;102.848;2024-03-08T12:02:02;61.42;;;54.22;;
19971;SDS011;10147;16.402;102.848;2024-03-08T12:04:35;69.85;;;56.78;;
19971;SDS011;10147;16.402;102.848;2024-03-08T12:07:05;66.78;;;55.47;;
19971;SDS011;10147;16.402;102.848;2024-03-08T12:09:40;69.25;;;56.60;;
19971;SDS011;10147;16.402;102.848;2024-03-08T12:12:15;68.63;;;55.50;;
19971;SDS011;10147;16.402;102.848;2024-03-08T12:14:45;64.82;;;56.03;;
19971;SDS011;10147;16.402;102.848;2024-03-08T12:17:15;64.85;;;56.65;;
19971;SDS011;10147;16.402;102.848;2024-03-08T12:19:46;66.22;;;55.25;;
19971;SDS011;10147;16.402;102.848;2024-03-08T12:22:16;64.72;;;54.90;;
19971;SDS011;10147;16.402;102.848;2024-03-08T12:25:02;68.60;;;54.08;;
19971;SDS011;10147;16.402;102.848;2024-03-08T12:27:34;74.97;;;58.20;;
19971;SDS011;10147;16.402;102.848;2024-03-08T12:33:02;67.97;;;56.25;;
19971;SDS011;10147;16.402;102.848;2024-03-08T12:35:32;74.22;;;59.30;;
19971;SDS011;10147;16.402;102.848;2024-03-08T12:38:03;75.53;;;60.45;;
19971;SDS011;10147;16.402;102.848;2024-03-08T12:40:35;74.80;;;64.93;;
19971;SDS011;10147;16.402;102.848;2024-03-08T12:43:09;70.82;;;61.88;;
19971;SDS011;10147;16.402;102.848;2024-03-08T12:45:40;71.07;;;57.65;;
19971;SDS011;10147;16.402;102.848;2024-03-08T12:48:14;70.07;;;58.17;;
19971;SDS011;10147;16.402;102.848;2024-03-08T12:50:44;64.30;;;57.40;;
19971;SDS011;10147;16.402;102.848;2024-03-08T12:53:16;63.88;;;56.28;;
19971;SDS011;10147;16.402;102.848;2024-03-08T12:55:47;65.53;;;56.95;;
19971;SDS011;10147;16.402;102.848;2024-03-08T12:58:17;68.47;;;54.58;;
19971;SDS011;10147;16.402;102.848;2024-03-08T13:00:49;62.47;;;54.72;;
19971;SDS011;10147;16.402;102.848;2024-03-08T13:03:20;63.42;;;54.90;;
19971;SDS011;10147;16.402;102.848;2024-03-08T13:05:51;60.30;;;53.88;;
19971;SDS011;10147;16.402;102.848;2024-03-08T13:08:21;69.38;;;51.75;;
19971;SDS011;10147;16.402;102.848;2024-03-08T13:10:54;67.75;;;56.33;;
19971;SDS011;10147;16.402;102.848;2024-03-08T13:13:24;62.97;;;54.55;;
19971;SDS011;10147;16.402;102.848;2024-03-08T13:15:54;63.78;;;55.33;;
19971;SDS011;10147;16.402;102.848;2024-03-08T13:18:25;66.25;;;54.13;;
19971;SDS011;10147;16.402;102.848;2024-03-08T13:20:56;62.17;;;54.05;;
19971;SDS011;10147;16.402;102.848;2024-03-08T13:23:26;62.65;;;49.38;;
19971;SDS011;10147;16.402;102.848;2024-03-08T13:25:57;63.35;;;52.92;;
19971;SDS011;10147;16.402;102.848;2024-03-08T13:28:27;61.35;;;51.38;;
19971;SDS011;10147;16.402;102.848;2024-03-08T13:31:04;58.38;;;52.08;;
19971;SDS011;10147;16.402;102.848;2024-03-08T13:33:35;63.60;;;50.03;;
19971;SDS011;10147;16.402;102.848;2024-03-08T13:36:08;66.47;;;55.53;;
19971;SDS011;10147;16.402;102.848;2024-03-08T13:38:45;66.68;;;56.22;;
19971;SDS011;10147;16.402;102.848;2024-03-08T13:41:18;58.00;;;51.30;;
19971;SDS011;10147;16.402;102.848;2024-03-08T13:43:51;60.55;;;51.53;;
19971;SDS011;10147;16.402;102.848;2024-03-08T13:46:21;65.97;;;51.05;;
19971;SDS011;10147;16.402;102.848;2024-03-08T13:48:53;59.45;;;50.33;;
19971;SDS011;10147;16.402;102.848;2024-03-08T13:51:28;56.80;;;48.38;;
19971;SDS011;10147;16.402;102.848;2024-03-08T13:53:59;59.88;;;50.33;;
19971;SDS011;10147;16.402;102.848;2024-03-08T13:56:30;59.83;;;50.05;;
19971;SDS011;10147;16.402;102.848;2024-03-08T13:59:00;58.55;;;50.95;;
19971;SDS011;10147;16.402;102.848;2024-03-08T14:01:31;56.92;;;50.60;;
19971;SDS011;10147;16.402;102.848;2024-03-08T14:04:01;53.38;;;47.40;;
19971;SDS011;10147;16.402;102.848;2024-03-08T14:06:33;64.82;;;53.95;;
19971;SDS011;10147;16.402;102.848;2024-03-08T14:09:05;64.82;;;57.63;;
19971;SDS011;10147;16.402;102.848;2024-03-08T14:11:38;53.50;;;47.63;;
19971;SDS011;10147;16.402;102.848;2024-03-08T14:14:08;56.83;;;47.63;;
19971;SDS011;10147;16.402;102.848;2024-03-08T14:16:39;61.67;;;47.83;;
19971;SDS011;10147;16.402;102.848;2024-03-08T14:19:09;54.22;;;47.83;;
19971;SDS011;10147;16.402;102.848;2024-03-08T14:21:39;56.42;;;48.78;;
19971;SDS011;10147;16.402;102.848;2024-03-08T14:24:11;59.83;;;48.58;;
19971;SDS011;10147;16.402;102.848;2024-03-08T14:26:41;62.50;;;49.15;;
19971;SDS011;10147;16.402;102.848;2024-03-08T14:29:12;55.38;;;47.42;;
19971;SDS011;10147;16.402;102.848;2024-03-08T14:31:44;59.20;;;48.28;;